Startpagina
METAR-TAF:

METAR-TAF

Vliegvelden :

Luchthaven van Auckland

Auckland, Nieuw-Zeeland

breedte: 37-01S, lengte: 174-48E, hoogte: 7 m

Actueel weer

Dit bericht is 32 minuten geleden gemaakt, om 05:30 UTC
Wind 11 kt uit het zuidwesten
Temperatuur 18°C
Vochtigheid 68%
Druk 1026 hPa
Zicht 10 km of meer

METAR: NZAA 200530Z AUTO 22011KT 9999 NCD 18/12 Q1026 NOSIG

Tijdstip: 19:02 (06:02 UTC)

Verwachting

Dit bericht is 59 minuten geleden gemaakt, om 05:03 UTC
Verwachting geldig van 20 om 06 UTC tot 21 om 06 UTC
Wind 10 kt uit het zuidwesten
Zicht 10 km of meer
Weinig wolken op 4000 ft
Van 20 om 0800 UTC
Wind 2 kt uit variabele richting
Zicht 10 km of meer
Gebroken wolken op 2000 ft
Van 20 om 2300 UTC
Wind 10 kt uit het zuidwesten
Zicht 10 km of meer
Weinig wolken op 4000 ft

TAF: NZAA 200503Z 2006/2106 22010KT 9999 FEW040 FM200800 VRB02KT 9999 BKN020 FM202300 22010KT 9999 FEW040

Waarnemingen en weersverwachtingen van meer dan 4000 vliegvelden (METAR en TAF).

De beschikbare stations zijn de gele en rode punten op de kaart.

Ga met uw muis naar het station om de naam te zien.

Klik dan om waarnemingen en weersverwachtingen te zien.

kaart wijzigen: klik op de groene knoppen met een zwart kruis om in te zoomen, op de groene knop met een streepje om uit te zoomen of op de groene pijlen voor aangrenzende kaarten.


METAR-TAF: